Terminal Aerodrome Forecast
Issued by NWS

Home | Current Version | Previous Version | Text Only | Print | Product List | Glossary On
Versions: 1 2 3 4 5 6 7 8 9 10 11 12
000
FTUS45 KGJT 190534
TAFVEL
TAF
KVEL 190534Z 1906/2006 27004KT P6SM SKC
     FM191400 12003KT P6SM FEW250
     FM200200 30004KT P6SM FEW250=

USA.gov is the U.S. government's official web portal to all federal, state and local government web resources and services.